Harrold, Texas
Current Conditions -  °F | °C
As of 7:15 AM on Thursday 18 Dec 2014 (Local Time) from KF05 Reporting Station
Overcast Overcast  
Wind Chill: 42°   Ceiling: 300
Heat Index: 42°   Visibility: 1.2mi
Dew Point: 39°   Wind: 3mph
Humidity: 88%   Direction: 60°ENE
Pressure: 30.11"   Gusts: NA
Location:  34.08°N, 99.03°W
Report Text: KF05 181315Z AUTO 06003KT 1 1/4SM OVC003 06/04 A3011 RMK AO1 T00580040
Loading
Personal Weather Stations






























Interactive Weather Map New forecast layout! Learn more

10-Day Weather Forecast

Advertisements
Track Severe Weather on mobile